sensor_id;sensor_type;location;lat;lon;timestamp;pressure;altitude;pressure_sealevel;temperature;humidity
65280;BME280;51878;55.748;48.742;2022-09-28T00:01:17;99204.91;;;3.89;99.04
65280;BME280;51878;55.748;48.742;2022-09-28T00:03:46;99294.88;;;4.29;99.29
65280;BME280;51878;55.748;48.742;2022-09-28T00:06:19;99112.59;;;3.18;98.80
65280;BME280;51878;55.748;48.742;2022-09-28T00:08:46;99086.97;;;3.06;99.06
65280;BME280;51878;55.748;48.742;2022-09-28T00:11:17;99286.00;;;4.28;99.16
65280;BME280;51878;55.748;48.742;2022-09-28T00:13:48;99278.31;;;4.16;98.87
65280;BME280;51878;55.748;48.742;2022-09-28T00:16:17;99253.84;;;4.19;98.97
65280;BME280;51878;55.748;48.742;2022-09-28T00:18:45;99275.38;;;4.37;98.84
65280;BME280;51878;55.748;48.742;2022-09-28T00:21:17;99187.28;;;3.86;98.66
65280;BME280;51878;55.748;48.742;2022-09-28T00:23:45;99241.53;;;3.98;98.89
65280;BME280;51878;55.748;48.742;2022-09-28T00:26:32;99225.78;;;3.85;99.42
65280;BME280;51878;55.748;48.742;2022-09-28T00:29:01;99204.53;;;3.84;98.69
65280;BME280;51878;55.748;48.742;2022-09-28T00:31:30;99205.47;;;3.92;98.68
65280;BME280;51878;55.748;48.742;2022-09-28T00:33:59;99241.09;;;4.03;98.25
65280;BME280;51878;55.748;48.742;2022-09-28T00:36:28;99241.84;;;3.95;98.81
65280;BME280;51878;55.748;48.742;2022-09-28T00:38:57;99247.72;;;4.08;98.82
65280;BME280;51878;55.748;48.742;2022-09-28T00:41:26;99140.31;;;3.27;98.92
65280;BME280;51878;55.748;48.742;2022-09-28T00:49:34;99194.03;;;3.63;98.48
65280;BME280;51878;55.748;48.742;2022-09-28T00:52:10;99224.16;;;3.75;98.79
65280;BME280;51878;55.748;48.742;2022-09-28T00:54:38;99228.69;;;4.02;98.21
65280;BME280;51878;55.748;48.742;2022-09-28T00:57:07;99273.72;;;4.26;97.73
65280;BME280;51878;55.748;48.742;2022-09-28T00:59:35;99157.41;;;3.54;97.80
65280;BME280;51878;55.748;48.742;2022-09-28T01:02:02;99230.13;;;3.96;97.73
65280;BME280;51878;55.748;48.742;2022-09-28T01:04:30;99275.97;;;4.30;97.66
65280;BME280;51878;55.748;48.742;2022-09-28T01:06:57;99197.66;;;3.71;97.95
65280;BME280;51878;55.748;48.742;2022-09-28T01:09:26;99279.91;;;4.08;97.77
65280;BME280;51878;55.748;48.742;2022-09-28T01:11:53;99266.25;;;4.02;98.43
65280;BME280;51878;55.748;48.742;2022-09-28T01:14:21;99220.88;;;3.81;98.31
65280;BME280;51878;55.748;48.742;2022-09-28T01:17:05;99277.22;;;4.08;99.03
65280;BME280;51878;55.748;48.742;2022-09-28T01:20:06;99278.84;;;3.91;99.99
65280;BME280;51878;55.748;48.742;2022-09-28T01:28:11;99265.28;;;3.93;99.48
65280;BME280;51878;55.748;48.742;2022-09-28T01:30:44;99246.00;;;4.07;98.63
65280;BME280;51878;55.748;48.742;2022-09-28T01:33:20;99230.28;;;3.67;99.75
65280;BME280;51878;55.748;48.742;2022-09-28T01:35:53;99243.78;;;4.03;99.65
65280;BME280;51878;55.748;48.742;2022-09-28T01:38:28;99221.59;;;3.83;100.00
65280;BME280;51878;55.748;48.742;2022-09-28T01:40:58;99212.31;;;3.77;99.58
65280;BME280;51878;55.748;48.742;2022-09-28T01:43:28;99230.97;;;3.97;99.29
65280;BME280;51878;55.748;48.742;2022-09-28T01:46:23;99244.75;;;3.84;99.44
65280;BME280;51878;55.748;48.742;2022-09-28T01:48:56;99176.44;;;3.50;99.07
65280;BME280;51878;55.748;48.742;2022-09-28T01:51:43;99220.88;;;3.81;99.31
65280;BME280;51878;55.748;48.742;2022-09-28T01:54:16;99242.75;;;3.86;100.00
65280;BME280;51878;55.748;48.742;2022-09-28T01:56:49;99231.03;;;3.87;99.61
65280;BME280;51878;55.748;48.742;2022-09-28T01:59:26;99187.25;;;3.68;98.56
65280;BME280;51878;55.748;48.742;2022-09-28T02:02:10;99227.25;;;3.80;99.12
65280;BME280;51878;55.748;48.742;2022-09-28T02:05:00;99243.06;;;4.01;98.00
65280;BME280;51878;55.748;48.742;2022-09-28T02:07:43;99252.81;;;3.74;98.57
65280;BME280;51878;55.748;48.742;2022-09-28T02:10:15;99159.78;;;3.29;99.27
65280;BME280;51878;55.748;48.742;2022-09-28T02:12:52;99211.00;;;3.54;99.82
65280;BME280;51878;55.748;48.742;2022-09-28T02:15:41;99182.09;;;3.20;99.83
65280;BME280;51878;55.748;48.742;2022-09-28T02:18:11;99194.38;;;3.50;99.30
65280;BME280;51878;55.748;48.742;2022-09-28T02:20:40;99193.63;;;3.58;98.48
65280;BME280;51878;55.748;48.742;2022-09-28T02:23:09;99145.00;;;3.15;99.18
65280;BME280;51878;55.748;48.742;2022-09-28T02:25:43;99220.44;;;3.58;98.94
65280;BME280;51878;55.748;48.742;2022-09-28T02:28:29;99142.69;;;3.30;99.04
65280;BME280;51878;55.748;48.742;2022-09-28T02:30:56;99212.66;;;3.64;99.12
65280;BME280;51878;55.748;48.742;2022-09-28T02:33:35;99182.69;;;3.41;98.99
65280;BME280;51878;55.748;48.742;2022-09-28T02:36:04;99024.06;;;2.55;98.95
65280;BME280;51878;55.748;48.742;2022-09-28T02:38:31;99198.84;;;3.59;99.06
65280;BME280;51878;55.748;48.742;2022-09-28T02:52:18;99206.47;;;3.64;98.77
65280;BME280;51878;55.748;48.742;2022-09-28T02:58:19;99177.41;;;3.22;99.26
65280;BME280;51878;55.748;48.742;2022-09-28T03:06:47;99218.81;;;3.37;100.00
65280;BME280;51878;55.748;48.742;2022-09-28T03:09:38;99221.66;;;3.36;99.28
65280;BME280;51878;55.748;48.742;2022-09-28T03:12:09;99157.59;;;3.05;100.00
65280;BME280;51878;55.748;48.742;2022-09-28T03:14:38;99150.31;;;2.87;100.00
65280;BME280;51878;55.748;48.742;2022-09-28T03:17:05;99155.69;;;2.87;100.00
65280;BME280;51878;55.748;48.742;2022-09-28T03:19:33;99154.50;;;3.00;99.89
65280;BME280;51878;55.748;48.742;2022-09-28T03:22:02;99219.81;;;3.36;99.67
65280;BME280;51878;55.748;48.742;2022-09-28T03:24:30;99223.66;;;3.24;100.00
65280;BME280;51878;55.748;48.742;2022-09-28T03:26:57;99146.81;;;2.77;99.65
65280;BME280;51878;55.748;48.742;2022-09-28T03:29:24;99219.88;;;3.17;100.00
65280;BME280;51878;55.748;48.742;2022-09-28T03:31:51;99213.81;;;3.15;99.22
65280;BME280;51878;55.748;48.742;2022-09-28T03:34:18;99180.84;;;3.14;99.28
65280;BME280;51878;55.748;48.742;2022-09-28T03:36:45;99193.66;;;3.10;99.60
65280;BME280;51878;55.748;48.742;2022-09-28T03:39:12;99186.06;;;3.06;98.82
65280;BME280;51878;55.748;48.742;2022-09-28T03:41:39;99166.78;;;2.93;99.41
65280;BME280;51878;55.748;48.742;2022-09-28T03:44:06;99202.31;;;2.95;100.00
65280;BME280;51878;55.748;48.742;2022-09-28T03:46:33;99208.63;;;3.13;99.68
65280;BME280;51878;55.748;48.742;2022-09-28T03:49:00;99180.31;;;3.01;99.95
65280;BME280;51878;55.748;48.742;2022-09-28T03:51:27;99175.22;;;3.07;99.54
65280;BME280;51878;55.748;48.742;2022-09-28T03:53:54;99177.88;;;3.07;99.43
65280;BME280;51878;55.748;48.742;2022-09-28T03:56:21;99163.09;;;3.03;98.76
65280;BME280;51878;55.748;48.742;2022-09-28T03:58:48;99048.22;;;2.25;99.09
65280;BME280;51878;55.748;48.742;2022-09-28T04:01:15;99162.13;;;2.95;97.95
65280;BME280;51878;55.748;48.742;2022-09-28T04:03:44;99202.91;;;3.26;97.92
65280;BME280;51878;55.748;48.742;2022-09-28T04:06:12;99202.84;;;3.08;98.47
65280;BME280;51878;55.748;48.742;2022-09-28T04:08:39;98980.75;;;1.94;98.00
65280;BME280;51878;55.748;48.742;2022-09-28T04:11:06;99142.16;;;2.89;96.88
65280;BME280;51878;55.748;48.742;2022-09-28T04:13:33;99071.72;;;2.32;97.02
65280;BME280;51878;55.748;48.742;2022-09-28T04:16:00;99124.88;;;2.64;97.17
65280;BME280;51878;55.748;48.742;2022-09-28T04:18:28;99202.41;;;3.13;97.50
65280;BME280;51878;55.748;48.742;2022-09-28T04:21:03;99194.94;;;3.16;97.46
65280;BME280;51878;55.748;48.742;2022-09-28T04:23:35;99200.69;;;3.21;97.49
65280;BME280;51878;55.748;48.742;2022-09-28T04:26:03;99172.56;;;2.98;97.36
65280;BME280;51878;55.748;48.742;2022-09-28T04:28:31;99134.13;;;2.79;97.14
65280;BME280;51878;55.748;48.742;2022-09-28T04:31:19;99160.91;;;2.79;95.98
65280;BME280;51878;55.748;48.742;2022-09-28T04:33:47;99128.25;;;2.66;96.39
65280;BME280;51878;55.748;48.742;2022-09-28T04:36:15;99084.94;;;2.43;97.19
65280;BME280;51878;55.748;48.742;2022-09-28T04:38:42;99071.84;;;2.40;96.17
65280;BME280;51878;55.748;48.742;2022-09-28T04:41:25;99120.06;;;2.77;96.41
65280;BME280;51878;55.748;48.742;2022-09-28T04:43:52;99161.13;;;3.05;95.76
65280;BME280;51878;55.748;48.742;2022-09-28T04:46:19;99176.38;;;2.95;96.21
65280;BME280;51878;55.748;48.742;2022-09-28T04:48:46;99173.31;;;2.71;96.34
65280;BME280;51878;55.748;48.742;2022-09-28T04:51:16;99117.84;;;2.53;95.85
65280;BME280;51878;55.748;48.742;2022-09-28T04:53:43;99169.78;;;2.89;96.21
65280;BME280;51878;55.748;48.742;2022-09-28T04:56:12;99142.31;;;2.78;96.26
65280;BME280;51878;55.748;48.742;2022-09-28T04:58:40;99195.44;;;2.82;96.36
65280;BME280;51878;55.748;48.742;2022-09-28T05:01:10;99195.44;;;2.82;97.22
65280;BME280;51878;55.748;48.742;2022-09-28T05:03:41;99180.09;;;2.65;97.97
65280;BME280;51878;55.748;48.742;2022-09-28T05:06:08;98981.31;;;1.49;97.41
65280;BME280;51878;55.748;48.742;2022-09-28T05:08:35;99176.25;;;2.77;98.44
65280;BME280;51878;55.748;48.742;2022-09-28T05:11:05;99084.53;;;2.09;97.33
65280;BME280;51878;55.748;48.742;2022-09-28T05:13:37;99146.72;;;2.40;97.58
65280;BME280;51878;55.748;48.742;2022-09-28T05:16:08;99167.56;;;2.56;98.50
65280;BME280;51878;55.748;48.742;2022-09-28T05:18:35;99165.56;;;2.77;98.99
65280;BME280;51878;55.748;48.742;2022-09-28T05:21:07;99193.44;;;2.94;98.84
65280;BME280;51878;55.748;48.742;2022-09-28T05:23:36;99165.13;;;2.82;98.00
65280;BME280;51878;55.748;48.742;2022-09-28T05:26:06;99042.91;;;2.06;97.74
65280;BME280;51878;55.748;48.742;2022-09-28T05:28:33;99193.41;;;3.04;98.33
65280;BME280;51878;55.748;48.742;2022-09-28T05:31:02;99197.47;;;3.08;97.84
65280;BME280;51878;55.748;48.742;2022-09-28T05:33:30;99195.53;;;2.90;97.56
65280;BME280;51878;55.748;48.742;2022-09-28T05:35:58;99150.94;;;2.72;98.42
65280;BME280;51878;55.748;48.742;2022-09-28T05:38:27;99142.19;;;2.69;98.68
65280;BME280;51878;55.748;48.742;2022-09-28T05:40:55;99190.63;;;2.96;97.58
65280;BME280;51878;55.748;48.742;2022-09-28T05:43:22;99149.78;;;2.74;97.09
65280;BME280;51878;55.748;48.742;2022-09-28T05:45:49;99110.25;;;2.58;98.23
65280;BME280;51878;55.748;48.742;2022-09-28T05:48:21;99192.41;;;3.05;97.24
65280;BME280;51878;55.748;48.742;2022-09-28T05:50:51;99185.78;;;3.09;96.74
65280;BME280;51878;55.748;48.742;2022-09-28T05:53:18;99179.56;;;3.08;95.86
65280;BME280;51878;55.748;48.742;2022-09-28T05:55:46;99159.41;;;3.14;96.97
65280;BME280;51878;55.748;48.742;2022-09-28T05:58:14;99055.97;;;2.19;97.04
65280;BME280;51878;55.748;48.742;2022-09-28T06:00:59;99176.19;;;3.16;98.08
65280;BME280;51878;55.748;48.742;2022-09-28T06:03:26;99096.56;;;2.61;97.84
65280;BME280;51878;55.748;48.742;2022-09-28T06:05:54;99116.53;;;2.77;97.11
65280;BME280;51878;55.748;48.742;2022-09-28T06:08:24;99164.59;;;2.68;98.41
65280;BME280;51878;55.748;48.742;2022-09-28T06:10:57;99158.88;;;3.01;98.81
65280;BME280;51878;55.748;48.742;2022-09-28T06:13:24;99103.59;;;2.72;98.62
65280;BME280;51878;55.748;48.742;2022-09-28T06:15:51;99129.22;;;2.75;97.88
65280;BME280;51878;55.748;48.742;2022-09-28T06:18:18;99143.75;;;2.72;98.43
65280;BME280;51878;55.748;48.742;2022-09-28T06:20:47;99155.53;;;2.89;97.92
65280;BME280;51878;55.748;48.742;2022-09-28T06:23:14;99088.84;;;2.58;98.66
65280;BME280;51878;55.748;48.742;2022-09-28T06:25:41;99144.72;;;2.81;98.70
65280;BME280;51878;55.748;48.742;2022-09-28T06:28:13;99094.38;;;2.27;99.05
65280;BME280;51878;55.748;48.742;2022-09-28T06:30:41;99126.16;;;2.60;98.43
65280;BME280;51878;55.748;48.742;2022-09-28T06:33:12;99089.03;;;2.47;99.29
65280;BME280;51878;55.748;48.742;2022-09-28T06:35:40;99135.56;;;2.64;98.10
65280;BME280;51878;55.748;48.742;2022-09-28T06:38:08;99127.28;;;2.57;98.41
65280;BME280;51878;55.748;48.742;2022-09-28T06:40:35;99136.28;;;2.66;98.99
65280;BME280;51878;55.748;48.742;2022-09-28T06:43:04;99116.47;;;2.39;97.99
65280;BME280;51878;55.748;48.742;2022-09-28T06:45:37;99073.00;;;2.27;99.06
65280;BME280;51878;55.748;48.742;2022-09-28T06:48:05;99140.06;;;2.73;99.87
65280;BME280;51878;55.748;48.742;2022-09-28T06:50:51;99113.38;;;2.54;99.34
65280;BME280;51878;55.748;48.742;2022-09-28T06:53:18;99064.28;;;2.25;98.47
65280;BME280;51878;55.748;48.742;2022-09-28T06:55:46;99132.66;;;2.38;99.22
65280;BME280;51878;55.748;48.742;2022-09-28T06:58:18;99136.31;;;2.46;99.45
65280;BME280;51878;55.748;48.742;2022-09-28T07:00:48;99050.22;;;2.04;100.00
65280;BME280;51878;55.748;48.742;2022-09-28T07:03:18;99135.50;;;2.36;100.00
65280;BME280;51878;55.748;48.742;2022-09-28T07:05:48;99023.78;;;1.81;100.00
65280;BME280;51878;55.748;48.742;2022-09-28T07:08:17;99055.13;;;2.09;100.00
65280;BME280;51878;55.748;48.742;2022-09-28T07:10:46;99132.63;;;2.57;100.00
65280;BME280;51878;55.748;48.742;2022-09-28T07:13:15;99118.84;;;2.42;100.00
65280;BME280;51878;55.748;48.742;2022-09-28T07:16:02;99058.66;;;2.09;100.00
65280;BME280;51878;55.748;48.742;2022-09-28T07:18:29;99042.06;;;1.96;100.00
65280;BME280;51878;55.748;48.742;2022-09-28T07:20:57;99070.19;;;2.00;100.00
65280;BME280;51878;55.748;48.742;2022-09-28T07:23:27;99090.72;;;2.09;100.00
65280;BME280;51878;55.748;48.742;2022-09-28T07:25:56;99116.88;;;2.44;100.00
65280;BME280;51878;55.748;48.742;2022-09-28T07:28:23;99040.50;;;1.93;100.00
65280;BME280;51878;55.748;48.742;2022-09-28T07:30:51;99042.63;;;1.90;100.00
65280;BME280;51878;55.748;48.742;2022-09-28T07:33:18;99098.44;;;2.41;100.00
65280;BME280;51878;55.748;48.742;2022-09-28T07:35:54;99106.31;;;2.53;100.00
65280;BME280;51878;55.748;48.742;2022-09-28T07:38:21;99095.38;;;2.26;100.00
65280;BME280;51878;55.748;48.742;2022-09-28T07:40:48;99088.88;;;2.39;100.00
65280;BME280;51878;55.748;48.742;2022-09-28T07:43:38;99049.78;;;2.09;100.00
65280;BME280;51878;55.748;48.742;2022-09-28T07:46:06;99001.97;;;1.76;100.00
65280;BME280;51878;55.748;48.742;2022-09-28T07:48:40;99083.81;;;2.36;100.00
65280;BME280;51878;55.748;48.742;2022-09-28T07:51:08;99081.75;;;2.10;100.00
65280;BME280;51878;55.748;48.742;2022-09-28T07:53:36;99071.44;;;1.76;100.00
65280;BME280;51878;55.748;48.742;2022-09-28T07:56:04;99084.13;;;2.03;100.00
65280;BME280;51878;55.748;48.742;2022-09-28T07:58:36;99084.38;;;2.20;100.00
65280;BME280;51878;55.748;48.742;2022-09-28T08:01:10;99079.03;;;2.20;100.00
65280;BME280;51878;55.748;48.742;2022-09-28T08:03:41;99076.25;;;1.92;100.00
65280;BME280;51878;55.748;48.742;2022-09-28T08:06:11;99002.41;;;1.42;100.00
65280;BME280;51878;55.748;48.742;2022-09-28T08:08:40;99074.56;;;1.91;100.00
65280;BME280;51878;55.748;48.742;2022-09-28T08:11:14;99035.19;;;1.64;100.00
65280;BME280;51878;55.748;48.742;2022-09-28T08:13:42;98940.00;;;1.24;100.00
65280;BME280;51878;55.748;48.742;2022-09-28T08:16:11;99073.16;;;2.06;100.00
65280;BME280;51878;55.748;48.742;2022-09-28T08:18:38;98961.91;;;1.28;100.00
65280;BME280;51878;55.748;48.742;2022-09-28T08:21:05;98953.91;;;1.28;100.00
65280;BME280;51878;55.748;48.742;2022-09-28T08:23:51;99054.03;;;2.01;100.00
65280;BME280;51878;55.748;48.742;2022-09-28T08:26:18;99061.75;;;1.75;100.00
65280;BME280;51878;55.748;48.742;2022-09-28T08:28:45;99054.16;;;1.90;100.00
65280;BME280;51878;55.748;48.742;2022-09-28T08:31:13;99046.84;;;1.92;100.00
65280;BME280;51878;55.748;48.742;2022-09-28T08:33:40;99036.31;;;1.91;100.00
65280;BME280;51878;55.748;48.742;2022-09-28T08:36:09;99045.44;;;1.98;100.00
65280;BME280;51878;55.748;48.742;2022-09-28T08:38:36;98993.97;;;1.67;100.00
65280;BME280;51878;55.748;48.742;2022-09-28T08:46:32;99035.56;;;1.98;100.00
65280;BME280;51878;55.748;48.742;2022-09-28T08:49:11;99063.72;;;2.12;100.00
65280;BME280;51878;55.748;48.742;2022-09-28T08:52:01;99062.03;;;1.92;100.00
65280;BME280;51878;55.748;48.742;2022-09-28T08:54:51;99048.09;;;1.98;100.00
65280;BME280;51878;55.748;48.742;2022-09-28T08:57:28;99054.97;;;2.20;100.00
65280;BME280;51878;55.748;48.742;2022-09-28T08:59:59;99009.88;;;1.88;100.00
65280;BME280;51878;55.748;48.742;2022-09-28T09:02:34;99050.47;;;2.20;100.00
65280;BME280;51878;55.748;48.742;2022-09-28T09:05:10;99072.28;;;2.25;100.00
65280;BME280;51878;55.748;48.742;2022-09-28T09:13:54;99047.50;;;2.14;100.00
65280;BME280;51878;55.748;48.742;2022-09-28T09:16:50;99047.38;;;2.15;100.00
65280;BME280;51878;55.748;48.742;2022-09-28T09:25:06;98974.72;;;1.73;100.00
65280;BME280;51878;55.748;48.742;2022-09-28T09:30:10;99030.78;;;2.12;100.00
65280;BME280;51878;55.748;48.742;2022-09-28T09:33:32;99000.88;;;1.79;100.00
65280;BME280;51878;55.748;48.742;2022-09-28T09:36:22;98939.13;;;1.43;100.00
65280;BME280;51878;55.748;48.742;2022-09-28T09:39:09;98941.41;;;1.38;100.00
65280;BME280;51878;55.748;48.742;2022-09-28T09:44:41;99005.91;;;1.92;100.00
65280;BME280;51878;55.748;48.742;2022-09-28T09:47:29;98977.09;;;1.76;100.00
65280;BME280;51878;55.748;48.742;2022-09-28T09:50:07;99022.81;;;1.73;100.00
65280;BME280;51878;55.748;48.742;2022-09-28T09:52:47;98950.81;;;1.22;100.00
65280;BME280;51878;55.748;48.742;2022-09-28T10:00:33;98996.63;;;1.76;100.00
65280;BME280;51878;55.748;48.742;2022-09-28T10:03:00;98858.91;;;0.96;100.00
65280;BME280;51878;55.748;48.742;2022-09-28T10:05:30;98934.94;;;1.50;100.00
65280;BME280;51878;55.748;48.742;2022-09-28T10:08:03;98983.84;;;1.60;100.00
65280;BME280;51878;55.748;48.742;2022-09-28T10:13:34;98920.19;;;1.27;100.00
65280;BME280;51878;55.748;48.742;2022-09-28T10:16:01;98991.72;;;1.62;100.00
65280;BME280;51878;55.748;48.742;2022-09-28T10:18:28;98926.63;;;1.34;100.00
65280;BME280;51878;55.748;48.742;2022-09-28T10:20:55;98993.28;;;1.64;100.00
65280;BME280;51878;55.748;48.742;2022-09-28T10:23:28;98925.38;;;1.28;100.00
65280;BME280;51878;55.748;48.742;2022-09-28T10:26:02;98935.78;;;1.31;100.00
65280;BME280;51878;55.748;48.742;2022-09-28T10:29:00;98969.66;;;1.40;100.00
65280;BME280;51878;55.748;48.742;2022-09-28T10:31:42;98869.19;;;1.00;100.00
65280;BME280;51878;55.748;48.742;2022-09-28T10:34:11;98947.56;;;1.58;100.00
65280;BME280;51878;55.748;48.742;2022-09-28T10:36:53;98972.16;;;1.71;100.00
65280;BME280;51878;55.748;48.742;2022-09-28T10:39:51;98988.22;;;1.61;100.00
65280;BME280;51878;55.748;48.742;2022-09-28T10:42:26;98854.84;;;0.92;100.00
65280;BME280;51878;55.748;48.742;2022-09-28T10:45:27;98948.41;;;1.39;100.00
65280;BME280;51878;55.748;48.742;2022-09-28T10:47:53;98921.03;;;1.17;100.00
65280;BME280;51878;55.748;48.742;2022-09-28T10:50:23;98939.56;;;1.38;100.00
65280;BME280;51878;55.748;48.742;2022-09-28T10:52:51;98914.69;;;1.48;100.00
65280;BME280;51878;55.748;48.742;2022-09-28T10:55:31;98950.22;;;1.77;100.00
65280;BME280;51878;55.748;48.742;2022-09-28T10:57:59;98964.56;;;1.76;100.00
65280;BME280;51878;55.748;48.742;2022-09-28T11:02:56;98937.00;;;1.85;100.00
65280;BME280;51878;55.748;48.742;2022-09-28T11:05:25;98956.69;;;1.84;100.00
65280;BME280;51878;55.748;48.742;2022-09-28T11:07:54;98932.66;;;1.65;100.00
65280;BME280;51878;55.748;48.742;2022-09-28T11:10:24;98868.19;;;1.21;100.00
65280;BME280;51878;55.748;48.742;2022-09-28T11:12:52;98904.59;;;1.41;100.00
65280;BME280;51878;55.748;48.742;2022-09-28T11:15:27;98916.47;;;1.76;100.00
65280;BME280;51878;55.748;48.742;2022-09-28T11:17:55;98905.09;;;1.64;100.00
65280;BME280;51878;55.748;48.742;2022-09-28T11:22:55;98904.00;;;1.57;100.00
65280;BME280;51878;55.748;48.742;2022-09-28T11:25:25;98823.63;;;1.31;100.00
65280;BME280;51878;55.748;48.742;2022-09-28T11:32:51;98818.72;;;1.27;100.00
65280;BME280;51878;55.748;48.742;2022-09-28T11:35:27;98874.88;;;1.54;100.00
65280;BME280;51878;55.748;48.742;2022-09-28T11:40:58;98854.81;;;1.40;100.00
65280;BME280;51878;55.748;48.742;2022-09-28T11:51:52;98828.09;;;1.40;100.00
65280;BME280;51878;55.748;48.742;2022-09-28T11:54:30;98729.53;;;1.10;100.00
65280;BME280;51878;55.748;48.742;2022-09-28T11:57:01;98824.72;;;1.38;100.00
65280;BME280;51878;55.748;48.742;2022-09-28T11:59:34;98825.25;;;1.61;100.00
65280;BME280;51878;55.748;48.742;2022-09-28T12:02:50;98807.00;;;1.57;100.00
65280;BME280;51878;55.748;48.742;2022-09-28T12:05:24;98702.34;;;0.87;100.00
65280;BME280;51878;55.748;48.742;2022-09-28T12:07:59;98745.53;;;1.19;100.00
65280;BME280;51878;55.748;48.742;2022-09-28T12:10:35;98805.78;;;1.41;100.00
65280;BME280;51878;55.748;48.742;2022-09-28T12:13:11;98802.75;;;1.64;100.00
65280;BME280;51878;55.748;48.742;2022-09-28T12:15:50;98838.34;;;1.55;100.00
65280;BME280;51878;55.748;48.742;2022-09-28T12:18:55;98859.59;;;1.47;100.00
65280;BME280;51878;55.748;48.742;2022-09-28T12:21:50;98856.47;;;1.51;100.00
65280;BME280;51878;55.748;48.742;2022-09-28T12:24:47;98851.28;;;1.50;100.00
65280;BME280;51878;55.748;48.742;2022-09-28T12:30:02;98856.69;;;1.30;100.00
65280;BME280;51878;55.748;48.742;2022-09-28T12:36:06;98823.75;;;1.39;100.00
65280;BME280;51878;55.748;48.742;2022-09-28T12:38:35;98775.59;;;1.12;100.00
65280;BME280;51878;55.748;48.742;2022-09-28T12:41:29;98861.16;;;1.39;100.00
65280;BME280;51878;55.748;48.742;2022-09-28T12:49:37;98788.28;;;1.00;100.00
65280;BME280;51878;55.748;48.742;2022-09-28T12:52:36;98845.53;;;1.44;100.00
65280;BME280;51878;55.748;48.742;2022-09-28T13:23:38;98659.84;;;1.13;100.00
65280;BME280;51878;55.748;48.742;2022-09-28T13:26:26;98700.16;;;1.47;100.00
65280;BME280;51878;55.748;48.742;2022-09-28T13:28:59;98694.56;;;1.50;100.00
65280;BME280;51878;55.748;48.742;2022-09-28T13:31:28;98671.50;;;1.12;100.00
65280;BME280;51878;55.748;48.742;2022-09-28T13:34:01;98723.31;;;1.29;100.00
65280;BME280;51878;55.748;48.742;2022-09-28T13:38:59;98663.25;;;1.05;100.00
65280;BME280;51878;55.748;48.742;2022-09-28T13:52:33;98731.25;;;1.48;100.00
65280;BME280;51878;55.748;48.742;2022-09-28T13:55:22;98732.91;;;1.59;100.00
65280;BME280;51878;55.748;48.742;2022-09-28T13:58:23;98653.97;;;1.09;100.00
65280;BME280;51878;55.748;48.742;2022-09-28T14:01:09;98674.47;;;1.09;100.00
65280;BME280;51878;55.748;48.742;2022-09-28T14:03:41;98754.94;;;1.61;100.00
65280;BME280;51878;55.748;48.742;2022-09-28T14:06:27;98666.31;;;1.10;100.00
65280;BME280;51878;55.748;48.742;2022-09-28T14:12:16;98700.34;;;1.46;100.00
65280;BME280;51878;55.748;48.742;2022-09-28T14:14:50;98668.53;;;1.52;100.00
65280;BME280;51878;55.748;48.742;2022-09-28T14:22:36;98699.91;;;1.50;100.00
65280;BME280;51878;55.748;48.742;2022-09-28T14:25:27;98664.81;;;1.35;100.00
65280;BME280;51878;55.748;48.742;2022-09-28T14:36:03;98634.59;;;1.35;100.00
65280;BME280;51878;55.748;48.742;2022-09-28T14:38:51;98690.78;;;1.71;100.00
65280;BME280;51878;55.748;48.742;2022-09-28T14:41:39;98671.16;;;1.62;100.00
65280;BME280;51878;55.748;48.742;2022-09-28T14:44:12;98649.44;;;1.47;100.00
65280;BME280;51878;55.748;48.742;2022-09-28T14:46:41;98601.53;;;1.18;100.00
65280;BME280;51878;55.748;48.742;2022-09-28T14:52:04;98672.56;;;1.56;100.00
65280;BME280;51878;55.748;48.742;2022-09-28T14:54:41;98621.53;;;1.32;100.00
65280;BME280;51878;55.748;48.742;2022-09-28T14:57:17;98696.69;;;1.74;100.00
65280;BME280;51878;55.748;48.742;2022-09-28T14:59:44;98675.47;;;1.63;100.00
65280;BME280;51878;55.748;48.742;2022-09-28T15:02:18;98637.84;;;1.56;100.00
65280;BME280;51878;55.748;48.742;2022-09-28T15:04:52;98675.56;;;1.81;100.00
65280;BME280;51878;55.748;48.742;2022-09-28T15:07:28;98614.72;;;1.47;100.00
65280;BME280;51878;55.748;48.742;2022-09-28T15:09:59;98544.16;;;1.04;100.00
65280;BME280;51878;55.748;48.742;2022-09-28T15:12:29;98677.44;;;1.89;100.00
65280;BME280;51878;55.748;48.742;2022-09-28T15:14:59;98581.13;;;1.44;100.00
65280;BME280;51878;55.748;48.742;2022-09-28T15:20:48;98588.00;;;1.47;100.00
65280;BME280;51878;55.748;48.742;2022-09-28T15:23:25;98660.00;;;1.94;100.00
65280;BME280;51878;55.748;48.742;2022-09-28T15:25:55;98615.16;;;1.70;100.00
65280;BME280;51878;55.748;48.742;2022-09-28T15:28:25;98578.34;;;1.64;100.00
65280;BME280;51878;55.748;48.742;2022-09-28T15:30:58;98564.50;;;1.51;100.00
65280;BME280;51878;55.748;48.742;2022-09-28T15:33:31;98579.13;;;1.74;100.00
65280;BME280;51878;55.748;48.742;2022-09-28T15:36:24;98635.00;;;2.03;100.00
65280;BME280;51878;55.748;48.742;2022-09-28T15:41:27;98617.50;;;2.09;100.00
65280;BME280;51878;55.748;48.742;2022-09-28T15:44:28;98637.81;;;2.20;100.00
65280;BME280;51878;55.748;48.742;2022-09-28T15:47:13;98570.00;;;1.67;100.00
65280;BME280;51878;55.748;48.742;2022-09-28T15:49:59;98566.81;;;1.81;100.00
65280;BME280;51878;55.748;48.742;2022-09-28T15:52:42;98567.50;;;1.83;100.00
65280;BME280;51878;55.748;48.742;2022-09-28T15:55:19;98542.59;;;1.83;100.00
65280;BME280;51878;55.748;48.742;2022-09-28T15:57:48;98522.09;;;1.65;100.00
65280;BME280;51878;55.748;48.742;2022-09-28T16:00:27;98627.22;;;2.28;100.00
65280;BME280;51878;55.748;48.742;2022-09-28T16:05:30;98609.41;;;2.37;100.00
65280;BME280;51878;55.748;48.742;2022-09-28T16:08:03;98572.91;;;2.10;100.00
65280;BME280;51878;55.748;48.742;2022-09-28T16:10:33;98570.28;;;2.18;100.00
65280;BME280;51878;55.748;48.742;2022-09-28T16:13:27;98637.50;;;2.41;100.00